createdAt,value
2019-05-05T00:01:57.459Z,3.70
2019-05-05T00:04:45.602Z,3.80
2019-05-05T00:07:17.583Z,3.80
2019-05-05T00:09:46.385Z,3.80
2019-05-05T00:12:34.240Z,3.80
2019-05-05T00:15:14.629Z,3.80
2019-05-05T00:17:45.010Z,3.80
2019-05-05T00:20:14.508Z,3.90
2019-05-05T00:22:42.767Z,3.90
2019-05-05T00:25:11.663Z,3.80
2019-05-05T00:27:39.943Z,3.80
2019-05-05T00:30:08.514Z,3.80
2019-05-05T00:32:36.589Z,3.70
2019-05-05T00:35:05.162Z,3.80
2019-05-05T00:37:34.568Z,3.80
2019-05-05T00:40:04.958Z,3.80
2019-05-05T00:42:35.227Z,3.70
2019-05-05T00:45:05.412Z,3.70
2019-05-05T00:47:41.970Z,3.70
2019-05-05T00:50:12.227Z,3.70
2019-05-05T00:52:40.503Z,3.70
2019-05-05T00:55:08.966Z,3.70
2019-05-05T00:57:37.075Z,3.80
2019-05-05T01:00:15.098Z,3.80
2019-05-05T01:02:47.831Z,3.80
2019-05-05T01:05:25.193Z,3.80
2019-05-05T01:07:54.680Z,3.80
2019-05-05T01:10:25.309Z,3.80
2019-05-05T01:12:54.463Z,3.80
2019-05-05T01:15:22.794Z,3.80
2019-05-05T01:17:51.049Z,3.90
2019-05-05T01:20:19.139Z,3.80
2019-05-05T01:22:47.598Z,3.80
2019-05-05T01:25:16.472Z,3.80
2019-05-05T01:27:45.313Z,3.80
2019-05-05T01:30:19.025Z,3.90
2019-05-05T01:32:50.738Z,3.90
2019-05-05T01:35:19.596Z,3.80
2019-05-05T01:38:06.214Z,3.80
2019-05-05T01:40:44.697Z,3.80
2019-05-05T01:43:14.594Z,3.70
2019-05-05T01:45:45.217Z,3.70
2019-05-05T01:48:14.263Z,3.70
2019-05-05T01:50:42.990Z,3.70
2019-05-05T01:53:11.610Z,3.70
2019-05-05T01:55:40.060Z,3.60
2019-05-05T01:58:08.415Z,3.70
2019-05-05T02:00:36.593Z,3.60
2019-05-05T02:03:04.768Z,3.70
2019-05-05T02:05:34.827Z,3.60
2019-05-05T02:08:04.909Z,3.60
2019-05-05T02:10:34.933Z,3.50
2019-05-05T02:13:04.651Z,3.50
2019-05-05T02:15:34.387Z,3.50
2019-05-05T02:18:04.507Z,3.50
2019-05-05T02:20:41.513Z,3.50
2019-05-05T02:23:11.171Z,3.40
2019-05-05T02:25:39.719Z,3.50
2019-05-05T02:28:08.006Z,3.50
2019-05-05T02:30:46.560Z,3.40
2019-05-05T02:33:15.717Z,3.50
2019-05-05T02:35:45.939Z,3.50
2019-05-05T02:38:15.687Z,3.40
2019-05-05T02:40:45.514Z,3.50
2019-05-05T02:43:15.156Z,3.50
2019-05-05T02:45:50.669Z,3.50
2019-05-05T02:48:19.981Z,3.50
2019-05-05T02:51:01.692Z,3.50
2019-05-05T02:53:34.183Z,3.50
2019-05-05T02:56:06.234Z,3.50
2019-05-05T02:58:37.150Z,3.50
2019-05-05T03:01:28.569Z,3.60
2019-05-05T03:03:58.248Z,3.50
2019-05-05T03:06:29.577Z,3.50
2019-05-05T03:08:58.810Z,3.50
2019-05-05T03:11:28.134Z,3.50
2019-05-05T03:13:57.860Z,3.50
2019-05-05T03:16:29.888Z,3.40
2019-05-05T03:18:58.221Z,3.40
2019-05-05T03:21:26.550Z,3.40
2019-05-05T03:23:55.376Z,3.40
2019-05-05T03:26:23.793Z,3.50
2019-05-05T03:28:57.044Z,3.40
2019-05-05T03:31:26.753Z,3.40
2019-05-05T03:33:56.203Z,3.40
2019-05-05T03:36:25.368Z,3.40
2019-05-05T03:38:54.840Z,3.40
2019-05-05T03:41:44.092Z,3.40
2019-05-05T03:44:37.731Z,3.30
2019-05-05T03:47:06.566Z,3.30
2019-05-05T03:49:34.841Z,3.30
2019-05-05T03:52:04.884Z,3.20
2019-05-05T03:54:34.254Z,3.20
2019-05-05T03:57:08.835Z,3.30
2019-05-05T03:59:44.089Z,3.30
2019-05-05T04:02:30.747Z,3.20
2019-05-05T04:05:05.238Z,3.20
2019-05-05T04:07:33.888Z,3.20
2019-05-05T04:10:03.767Z,3.10
2019-05-05T04:12:34.602Z,3.10
2019-05-05T04:15:03.857Z,3.10
2019-05-05T04:17:53.495Z,3.10
2019-05-05T04:20:26.558Z,3.20
2019-05-05T04:22:57.862Z,3.10
2019-05-05T04:25:25.083Z,3.10
2019-05-05T04:27:53.865Z,3.10
2019-05-05T04:30:23.693Z,3.10
2019-05-05T04:32:54.381Z,3.10
2019-05-05T04:35:22.072Z,3.10
2019-05-05T04:37:50.285Z,3.00
2019-05-05T04:40:18.328Z,3.10
2019-05-05T04:42:46.710Z,3.10
2019-05-05T04:45:15.096Z,3.00
2019-05-05T04:47:46.238Z,3.10
2019-05-05T04:50:34.599Z,3.10
2019-05-05T04:53:04.735Z,3.10
2019-05-05T04:55:33.759Z,3.10
2019-05-05T04:58:01.585Z,3.00
2019-05-05T05:00:29.278Z,3.00
2019-05-05T05:03:05.405Z,3.10
2019-05-05T05:05:53.595Z,3.10
2019-05-05T05:08:22.008Z,3.00
2019-05-05T05:10:49.907Z,3.00
2019-05-05T05:13:17.628Z,3.00
2019-05-05T05:15:47.969Z,3.00
2019-05-05T05:18:16.549Z,3.00
2019-05-05T05:20:45.252Z,3.10
2019-05-05T05:23:14.144Z,3.10
2019-05-05T05:25:43.837Z,3.10
2019-05-05T05:28:14.163Z,3.10
2019-05-05T05:30:43.954Z,3.10
2019-05-05T05:33:14.770Z,3.10
2019-05-05T05:35:44.127Z,3.10
2019-05-05T05:38:14.067Z,3.10
2019-05-05T05:40:49.693Z,3.20
2019-05-05T05:43:22.591Z,3.20
2019-05-05T05:46:13.592Z,3.20
2019-05-05T05:49:07.082Z,3.30
2019-05-05T05:51:35.310Z,3.30
2019-05-05T05:54:03.818Z,3.30
2019-05-05T05:56:34.172Z,3.30
2019-05-05T05:59:03.670Z,3.30
2019-05-05T06:01:31.571Z,3.30
2019-05-05T06:03:59.515Z,3.40
2019-05-05T06:06:43.876Z,3.40
2019-05-05T06:09:35.008Z,3.40
2019-05-05T06:12:10.518Z,3.50
2019-05-05T06:14:39.007Z,3.50
2019-05-05T06:17:24.502Z,3.60
2019-05-05T06:19:53.481Z,3.60
2019-05-05T06:22:28.558Z,3.60
2019-05-05T06:24:54.048Z,3.60
2019-05-05T06:27:23.608Z,3.60
2019-05-05T06:29:54.082Z,3.60
2019-05-05T06:32:23.757Z,3.70
2019-05-05T06:34:53.443Z,3.60
2019-05-05T06:37:23.679Z,3.70
2019-05-05T06:39:54.452Z,3.70
2019-05-05T06:42:31.815Z,3.70
2019-05-05T06:45:05.290Z,3.70
2019-05-05T06:47:38.607Z,3.70
2019-05-05T06:50:07.229Z,3.70
2019-05-05T06:52:43.727Z,3.70
2019-05-05T06:55:05.119Z,3.70
2019-05-05T06:57:34.305Z,3.70
2019-05-05T07:00:03.663Z,3.70
2019-05-05T07:02:31.509Z,3.70
2019-05-05T07:05:04.066Z,3.70
2019-05-05T07:07:34.116Z,3.90
2019-05-05T07:10:03.741Z,3.90
2019-05-05T07:12:34.702Z,4.00
2019-05-05T07:15:04.242Z,4.00
2019-05-05T07:17:33.836Z,4.10
2019-05-05T07:20:03.746Z,4.20
2019-05-05T07:22:31.424Z,4.10
2019-05-05T07:25:01.801Z,4.20
2019-05-05T07:27:29.809Z,4.20
2019-05-05T07:29:57.489Z,4.30
2019-05-05T07:32:27.539Z,4.30
2019-05-05T07:35:14.574Z,4.30
2019-05-05T07:37:43.646Z,4.40
2019-05-05T07:40:13.577Z,4.50
2019-05-05T07:42:41.564Z,4.40
2019-05-05T07:45:20.254Z,4.50
2019-05-05T07:47:40.267Z,4.50
2019-05-05T07:50:14.515Z,4.60
2019-05-05T07:52:39.266Z,4.70
2019-05-05T07:55:07.359Z,4.60
2019-05-05T07:57:35.365Z,4.60
2019-05-05T08:00:05.390Z,4.60
2019-05-05T08:02:34.006Z,4.60
2019-05-05T08:05:04.534Z,4.80
2019-05-05T08:07:34.026Z,4.70
2019-05-05T08:10:04.540Z,4.60
2019-05-05T08:12:34.180Z,4.70
2019-05-05T08:15:04.163Z,4.70
2019-05-05T08:17:51.600Z,4.70
2019-05-05T08:20:27.001Z,4.80
2019-05-05T08:22:55.131Z,4.80
2019-05-05T08:25:45.887Z,4.90
2019-05-05T08:28:27.800Z,4.90
2019-05-05T08:31:03.953Z,4.90
2019-05-05T08:33:33.591Z,5.00
2019-05-05T08:36:01.595Z,5.20
2019-05-05T08:38:30.007Z,5.20
2019-05-05T08:40:58.259Z,5.20
2019-05-05T08:43:26.446Z,5.70
2019-05-05T08:45:55.417Z,5.80
2019-05-05T08:48:24.613Z,5.60
2019-05-05T08:50:54.269Z,6.00
2019-05-05T08:53:24.337Z,6.00
2019-05-05T08:55:54.507Z,6.00
2019-05-05T08:58:25.119Z,6.30
2019-05-05T09:00:54.291Z,6.90
2019-05-05T09:03:24.237Z,7.50
2019-05-05T09:05:54.073Z,8.30
2019-05-05T09:08:24.013Z,8.30
2019-05-05T09:10:53.172Z,8.60
2019-05-05T09:13:24.520Z,8.00
2019-05-05T09:15:54.251Z,7.90
2019-05-05T09:18:24.608Z,7.90
2019-05-05T09:20:53.770Z,8.00
2019-05-05T09:23:24.023Z,8.20
2019-05-05T09:26:10.372Z,9.00
2019-05-05T09:28:58.396Z,8.80
2019-05-05T09:31:26.131Z,8.40
2019-05-05T09:33:53.860Z,8.30
2019-05-05T09:36:21.864Z,7.90
2019-05-05T09:38:50.104Z,7.50
2019-05-05T09:41:17.796Z,7.20
2019-05-05T09:43:45.562Z,7.60
2019-05-05T09:46:14.340Z,7.90
2019-05-05T09:48:44.049Z,7.90
2019-05-05T09:51:13.624Z,7.70
2019-05-05T09:53:41.869Z,7.40
2019-05-05T09:56:10.445Z,7.40
2019-05-05T09:58:38.158Z,7.60
2019-05-05T10:01:07.101Z,8.10
2019-05-05T10:03:35.222Z,8.20
2019-05-05T10:06:05.020Z,9.00
2019-05-05T10:08:34.057Z,9.40
2019-05-05T10:11:03.948Z,8.80
2019-05-05T10:13:33.656Z,8.80
2019-05-05T10:16:03.845Z,8.60
2019-05-05T10:18:35.497Z,8.70
2019-05-05T10:21:01.845Z,9.20
2019-05-05T10:23:31.694Z,9.80
2019-05-05T10:26:04.395Z,9.90
2019-05-05T10:28:33.965Z,9.50
2019-05-05T10:31:04.194Z,8.80
2019-05-05T10:33:31.556Z,8.30
2019-05-05T10:35:59.287Z,8.40
2019-05-05T10:38:26.995Z,8.80
2019-05-05T10:40:55.110Z,9.50
2019-05-05T10:43:23.829Z,9.30
2019-05-05T10:45:54.542Z,9.30
2019-05-05T10:48:23.584Z,9.10
2019-05-05T10:50:53.602Z,8.80
2019-05-05T10:53:21.004Z,8.90
2019-05-05T10:55:48.709Z,9.80
2019-05-05T10:58:16.451Z,10.30
2019-05-05T11:00:50.461Z,10.10
2019-05-05T11:03:18.704Z,9.30
2019-05-05T11:05:46.520Z,9.20
2019-05-05T11:08:14.700Z,9.40
2019-05-05T11:10:44.868Z,9.30
2019-05-05T11:13:12.768Z,9.70
2019-05-05T11:15:40.549Z,9.80
2019-05-05T11:18:08.740Z,9.70
2019-05-05T11:20:36.864Z,9.30
2019-05-05T11:23:05.302Z,9.40
2019-05-05T11:25:33.846Z,10.10
2019-05-05T11:28:03.714Z,10.50
2019-05-05T11:30:36.466Z,10.50
2019-05-05T11:33:20.584Z,9.70
2019-05-05T11:35:58.140Z,9.50
2019-05-05T11:38:26.219Z,9.50
2019-05-05T11:40:54.729Z,9.60
2019-05-05T11:43:24.614Z,9.50
2019-05-05T11:45:54.383Z,9.20
2019-05-05T11:48:24.071Z,9.20
2019-05-05T11:50:53.805Z,9.10
2019-05-05T11:53:21.163Z,9.20
2019-05-05T11:55:49.050Z,9.00
2019-05-05T11:58:16.754Z,9.10
2019-05-05T12:00:44.916Z,9.10
2019-05-05T12:03:14.348Z,8.90
2019-05-05T12:05:44.260Z,8.90
2019-05-05T12:08:14.760Z,9.10
2019-05-05T12:10:50.754Z,9.30
2019-05-05T12:13:33.358Z,9.50
2019-05-05T12:16:04.671Z,9.50
2019-05-05T12:18:35.577Z,9.40
2019-05-05T12:21:05.083Z,9.60
2019-05-05T12:23:34.058Z,9.30
2019-05-05T12:26:21.615Z,9.30
2019-05-05T12:28:54.530Z,9.30
2019-05-05T12:31:24.843Z,9.50
2019-05-05T12:33:54.786Z,9.30
2019-05-05T12:36:23.651Z,9.00
2019-05-05T12:38:51.758Z,9.00
2019-05-05T12:41:21.027Z,9.00
2019-05-05T12:43:49.315Z,9.00
2019-05-05T12:46:35.056Z,9.00
2019-05-05T12:49:04.897Z,9.30
2019-05-05T12:51:34.310Z,9.50
2019-05-05T12:54:04.348Z,9.30
2019-05-05T12:56:33.836Z,9.30
2019-05-05T12:59:03.811Z,9.20
2019-05-05T13:01:34.947Z,9.30
2019-05-05T13:04:03.571Z,9.10
2019-05-05T13:06:34.402Z,9.00
2019-05-05T13:09:02.288Z,9.00
2019-05-05T13:11:30.097Z,8.90
2019-05-05T13:13:57.860Z,8.90
2019-05-05T13:16:25.991Z,9.00
2019-05-05T13:18:54.011Z,9.20
2019-05-05T13:21:56.993Z,9.50
2019-05-05T13:24:49.443Z,9.80
2019-05-05T13:27:21.782Z,9.30
2019-05-05T13:29:49.635Z,9.20
2019-05-05T13:32:19.357Z,9.00
2019-05-05T13:34:47.548Z,8.90
2019-05-05T13:37:15.300Z,8.90
2019-05-05T13:39:44.545Z,9.00
2019-05-05T13:42:13.855Z,9.20
2019-05-05T13:44:56.303Z,9.60
2019-05-05T13:47:24.140Z,9.70
2019-05-05T13:49:54.263Z,9.70
2019-05-05T13:52:24.196Z,9.70
2019-05-05T13:54:54.316Z,9.80
2019-05-05T13:57:22.080Z,9.60
2019-05-05T13:59:50.046Z,9.70
2019-05-05T14:02:17.967Z,9.70
2019-05-05T14:04:46.115Z,9.70
2019-05-05T14:07:13.980Z,9.60
2019-05-05T14:09:44.036Z,9.60
2019-05-05T14:12:11.450Z,9.70
2019-05-05T14:14:39.574Z,9.80
2019-05-05T14:17:07.295Z,9.70
2019-05-05T14:19:35.415Z,9.90
2019-05-05T14:22:04.478Z,10.30
2019-05-05T14:24:39.398Z,10.40
2019-05-05T14:27:07.267Z,10.40
2019-05-05T14:29:49.781Z,10.20
2019-05-05T14:32:18.904Z,10.20
2019-05-05T14:34:54.197Z,10.10
2019-05-05T14:37:27.379Z,10.40
2019-05-05T14:39:57.379Z,10.60
2019-05-05T14:42:25.545Z,10.70
2019-05-05T14:44:54.578Z,10.70
2019-05-05T14:47:24.543Z,10.60
2019-05-05T14:49:54.102Z,10.70
2019-05-05T14:52:24.319Z,10.50
2019-05-05T14:54:51.524Z,10.20
2019-05-05T14:57:21.599Z,10.00
2019-05-05T14:59:53.824Z,9.90
2019-05-05T15:02:21.387Z,10.00
2019-05-05T15:04:49.243Z,10.00
2019-05-05T15:07:34.759Z,10.10
2019-05-05T15:10:20.841Z,10.20
2019-05-05T15:12:53.843Z,10.50
2019-05-05T15:15:24.349Z,10.40
2019-05-05T15:17:53.653Z,10.50
2019-05-05T15:20:21.527Z,10.60
2019-05-05T15:22:49.754Z,10.70
2019-05-05T15:25:17.530Z,10.80
2019-05-05T15:27:58.606Z,10.80
2019-05-05T15:30:27.210Z,11.00
2019-05-05T15:32:55.196Z,10.90
2019-05-05T15:35:23.640Z,10.70
2019-05-05T15:37:51.343Z,10.90
2019-05-05T15:40:19.063Z,11.00
2019-05-05T15:42:46.788Z,10.70
2019-05-05T15:45:14.932Z,10.70
2019-05-05T15:47:43.526Z,10.60
2019-05-05T15:50:17.392Z,10.50
2019-05-05T15:52:46.113Z,10.30
2019-05-05T15:55:15.191Z,10.30
2019-05-05T15:57:44.381Z,10.30
2019-05-05T16:00:14.098Z,10.10
2019-05-05T16:02:44.210Z,10.10
2019-05-05T16:05:13.729Z,10.00
2019-05-05T16:07:43.806Z,9.60
2019-05-05T16:10:13.628Z,9.10
2019-05-05T16:12:41.766Z,8.80
2019-05-05T16:15:32.977Z,8.80
2019-05-05T16:18:29.221Z,8.70
2019-05-05T16:21:19.038Z,8.70
2019-05-05T16:23:49.996Z,8.70
2019-05-05T16:26:18.368Z,8.80
2019-05-05T16:28:46.116Z,8.90
2019-05-05T16:31:14.597Z,9.10
2019-05-05T16:33:43.996Z,9.20
2019-05-05T16:36:13.718Z,9.20
2019-05-05T16:38:43.570Z,9.40
2019-05-05T16:41:13.591Z,9.50
2019-05-05T16:43:40.903Z,9.40
2019-05-05T16:46:08.701Z,9.50
2019-05-05T16:48:36.783Z,9.50
2019-05-05T16:51:06.772Z,9.40
2019-05-05T16:53:35.307Z,9.40
2019-05-05T16:56:04.511Z,9.30
2019-05-05T16:58:33.377Z,9.30
2019-05-05T17:01:01.101Z,9.00
2019-05-05T17:03:28.832Z,8.80
2019-05-05T17:05:58.268Z,8.60
2019-05-05T17:08:26.303Z,8.40
2019-05-05T17:10:54.437Z,8.30
2019-05-05T17:13:34.515Z,8.30
2019-05-05T17:16:39.920Z,8.30
2019-05-05T17:19:17.946Z,8.30
2019-05-05T17:22:04.034Z,8.40
2019-05-05T17:24:34.355Z,8.40
2019-05-05T17:27:03.534Z,8.40
2019-05-05T17:29:31.726Z,8.40
2019-05-05T17:31:59.399Z,8.40
2019-05-05T17:34:27.571Z,8.50
2019-05-05T17:36:55.355Z,8.60
2019-05-05T17:39:25.265Z,8.50
2019-05-05T17:42:27.608Z,8.50
2019-05-05T17:45:14.150Z,8.50
2019-05-05T17:47:45.783Z,8.70
2019-05-05T17:50:19.946Z,8.80
2019-05-05T17:53:04.807Z,8.80
2019-05-05T17:55:34.839Z,8.80
2019-05-05T17:58:02.935Z,8.90
2019-05-05T18:00:34.335Z,8.80
2019-05-05T18:03:04.191Z,8.70
2019-05-05T18:05:49.591Z,8.80
2019-05-05T18:08:35.020Z,8.90
2019-05-05T18:11:06.940Z,8.80
2019-05-05T18:13:39.257Z,8.70
2019-05-05T18:16:06.969Z,8.60
2019-05-05T18:18:40.377Z,8.60
2019-05-05T18:21:08.079Z,8.50
2019-05-05T18:23:35.875Z,8.40
2019-05-05T18:26:04.146Z,8.30
2019-05-05T18:28:33.925Z,8.20
2019-05-05T18:31:01.767Z,8.20
2019-05-05T18:33:30.866Z,8.10
2019-05-05T18:35:58.630Z,8.00
2019-05-05T18:38:26.351Z,8.00
2019-05-05T18:40:55.834Z,7.90
2019-05-05T18:43:34.079Z,7.90
2019-05-05T18:46:04.611Z,7.80
2019-05-05T18:48:34.367Z,7.70
2019-05-05T18:51:03.898Z,7.70
2019-05-05T18:53:34.154Z,7.60
2019-05-05T18:56:03.760Z,7.60
2019-05-05T18:58:34.176Z,7.50
2019-05-05T19:01:39.364Z,7.50
2019-05-05T19:04:21.858Z,7.40
2019-05-05T19:06:57.313Z,7.40
2019-05-05T19:09:25.122Z,7.30
2019-05-05T19:11:54.626Z,7.30
2019-05-05T19:14:24.130Z,7.30
2019-05-05T19:16:55.334Z,7.20
2019-05-05T19:19:23.585Z,7.10
2019-05-05T19:21:54.792Z,7.10
2019-05-05T19:24:22.496Z,7.10
2019-05-05T19:26:50.235Z,7.00
2019-05-05T19:29:17.930Z,7.00
2019-05-05T19:31:45.681Z,7.00
2019-05-05T19:34:14.541Z,6.90
2019-05-05T19:36:44.838Z,6.90
2019-05-05T19:39:13.736Z,6.90
2019-05-05T19:41:46.567Z,6.90
2019-05-05T19:44:11.279Z,6.80
2019-05-05T19:46:50.362Z,6.80
2019-05-05T19:49:18.681Z,6.80
2019-05-05T19:51:47.275Z,6.70
2019-05-05T19:54:14.971Z,6.70
2019-05-05T19:56:44.752Z,6.70
2019-05-05T19:59:13.753Z,6.70
2019-05-05T20:01:41.844Z,6.70
2019-05-05T20:04:09.713Z,6.70
2019-05-05T20:06:37.827Z,6.60
2019-05-05T20:09:07.502Z,6.60
2019-05-05T20:11:35.353Z,6.60
2019-05-05T20:14:07.549Z,6.50
2019-05-05T20:16:38.752Z,6.50
2019-05-05T20:19:06.833Z,6.50
2019-05-05T20:21:34.703Z,6.40
2019-05-05T20:24:03.738Z,6.40
2019-05-05T20:26:31.988Z,6.40
2019-05-05T20:29:10.673Z,6.30
2019-05-05T20:31:29.547Z,6.30
2019-05-05T20:34:09.331Z,6.30
2019-05-05T20:36:56.443Z,6.30
2019-05-05T20:39:24.576Z,6.40
2019-05-05T20:41:54.366Z,6.30
2019-05-05T20:44:24.547Z,6.40
2019-05-05T20:46:53.539Z,6.40
2019-05-05T20:49:21.466Z,6.50
2019-05-05T20:51:49.876Z,6.50
2019-05-05T20:54:17.569Z,6.50
2019-05-05T20:56:45.329Z,6.50
2019-05-05T20:59:26.776Z,6.60
2019-05-05T21:01:43.913Z,6.60
2019-05-05T21:04:13.972Z,6.60
2019-05-05T21:06:41.314Z,6.60
2019-05-05T21:09:09.460Z,6.60
2019-05-05T21:11:40.195Z,6.60
2019-05-05T21:14:07.988Z,6.60
2019-05-05T21:16:35.727Z,6.60
2019-05-05T21:19:04.568Z,6.60
2019-05-05T21:21:34.571Z,6.60
2019-05-05T21:24:04.079Z,6.60
2019-05-05T21:26:56.478Z,6.60
2019-05-05T21:29:24.207Z,6.50
2019-05-05T21:31:52.070Z,6.40
2019-05-05T21:34:19.815Z,6.40
2019-05-05T21:36:47.558Z,6.30
2019-05-05T21:39:15.228Z,6.20
2019-05-05T21:41:43.790Z,6.20
2019-05-05T21:44:14.455Z,6.10
2019-05-05T21:46:43.692Z,6.00
2019-05-05T21:49:13.464Z,6.00
2019-05-05T21:52:05.761Z,6.00
2019-05-05T21:54:51.569Z,6.00
2019-05-05T21:57:41.327Z,6.00
2019-05-05T22:00:28.712Z,5.90
2019-05-05T22:02:56.952Z,5.90
2019-05-05T22:05:24.665Z,5.90
2019-05-05T22:07:53.898Z,5.90
2019-05-05T22:10:21.794Z,5.80
2019-05-05T22:12:49.552Z,5.80
2019-05-05T22:15:18.195Z,5.80
2019-05-05T22:17:45.907Z,5.70
2019-05-05T22:20:20.924Z,5.80
2019-05-05T22:22:49.009Z,5.80
2019-05-05T22:25:16.857Z,5.70
2019-05-05T22:27:45.018Z,5.70
2019-05-05T22:30:14.161Z,5.60
2019-05-05T22:32:44.156Z,5.60
2019-05-05T22:35:14.070Z,5.50
2019-05-05T22:37:43.966Z,5.50
2019-05-05T22:40:18.891Z,5.50
2019-05-05T22:42:46.591Z,5.50
2019-05-05T22:45:14.330Z,5.50
2019-05-05T22:47:42.043Z,5.40
2019-05-05T22:50:10.139Z,5.40
2019-05-05T22:52:38.212Z,5.40
2019-05-05T22:55:05.927Z,5.40
2019-05-05T22:57:34.460Z,5.30
2019-05-05T23:00:03.748Z,5.20
2019-05-05T23:02:34.104Z,5.20
2019-05-05T23:05:07.699Z,5.20
2019-05-05T23:07:35.912Z,5.10
2019-05-05T23:10:04.654Z,5.00
2019-05-05T23:12:32.383Z,5.00
2019-05-05T23:15:04.161Z,5.00
2019-05-05T23:17:57.793Z,4.80
2019-05-05T23:21:01.219Z,4.80
2019-05-05T23:23:57.452Z,4.80
2019-05-05T23:26:26.927Z,4.70
2019-05-05T23:28:54.705Z,4.60
2019-05-05T23:31:24.129Z,4.60
2019-05-05T23:33:51.911Z,4.60
2019-05-05T23:36:19.613Z,4.60
2019-05-05T23:38:47.633Z,4.50
2019-05-05T23:41:15.343Z,4.50
2019-05-05T23:43:44.911Z,4.50
2019-05-05T23:46:14.356Z,4.50
2019-05-05T23:48:43.035Z,4.40
2019-05-05T23:51:13.866Z,4.40
2019-05-05T23:53:44.308Z,4.40
2019-05-05T23:56:13.556Z,4.40
2019-05-05T23:58:43.907Z,4.30
